Robinson, Pennsylvania
Current Conditions -  °F | °C
As of 12:55 PM on Tuesday 21 Oct 2014 (Local Time) from KIDI Reporting Station
Broken Clouds Broken Clouds  
Wind Chill: 52°   Ceiling: 5000
Heat Index: 52°   Visibility: 8mi
Dew Point: 48°   Wind: 6mph
Humidity: 88%   Direction: 290°WNW
Pressure: 29.9"   Gusts: 15mph
Location:  40.4°N, 79.13°W
Report Text: KIDI 211655Z AUTO 29005G13KT 8SM SCT014 SCT034 BKN050 11/09 A2990 RMK A01
Loading
Personal Weather Stations






























Interactive Weather Map
Tropical Storm Tracking
New forecast layout! Learn more

10-Day Weather Forecast

Advertisements
Track Severe Weather on mobile